Time;durP1;ratioP1;P1;durP2;ratioP2;P2;SDS_P1;SDS_P2;PMS_P1;PMS_P2;Temp;Humidity;BMP_temperature;BMP_pressure;BME280_temperature;BME280_humidity;BME280_pressure;Samples;Min_cycle;Max_cycle;Signal;HPM_P1;HPM_P2
2023/09/22 00:00:11;;;;;;;6.60;1.80;;;;;;;;;;2613501;54;20406;-77
2023/09/22 00:05:40;;;;;;;15.20;2.40;;;;;;;;;;2614452;54;21147;-76
2023/09/22 00:11:10;;;;;;;3.13;1.90;;;;;;;;;;2614443;54;20937;-76
2023/09/22 00:16:40;;;;;;;6.10;2.70;;;;;;;;;;2615436;54;20379;-76
2023/09/22 00:22:10;;;;;;;4.43;2.23;;;;;;;;;;2613168;54;20408;-76
2023/09/22 00:27:39;;;;;;;5.10;2.73;;;;;;;;;;2612923;54;20406;-76
2023/09/22 00:33:10;;;;;;;4.17;3.00;;;;;;;;;;2613296;54;20905;-77
2023/09/22 00:38:41;;;;;;;2.73;2.30;;;;;;;;;;2612242;54;20958;-76
2023/09/22 00:41:26;;;;;;;5.10;3.50;;;;;;;;;;2614103;54;20431;-76
2023/09/22 00:43:52;;;;;;;4.83;2.83;;;;;;;;;;2613448;47;20416;-77
2023/09/22 00:49:22;;;;;;;4.47;3.40;;;;;;;;;;2614871;54;20395;-77
2023/09/22 00:54:52;;;;;;;6.90;3.43;;;;;;;;;;2613080;54;20370;-77
2023/09/22 01:00:22;;;;;;;5.37;3.03;;;;;;;;;;2614179;54;20406;-76
2023/09/22 01:09:27;;;;;;;3.73;3.00;;;;;;;;;;2615214;54;20484;-75
2023/09/22 01:14:56;;;;;;;5.80;1.90;;;;;;;;;;2613934;54;20629;-75
2023/09/22 01:20:26;;;;;;;4.30;3.20;;;;;;;;;;2612407;54;20395;-75
2023/09/22 01:25:56;;;;;;;5.77;3.57;;;;;;;;;;2615357;54;20941;-75
2023/09/22 01:31:25;;;;;;;3.20;2.90;;;;;;;;;;2612419;54;20366;-75
2023/09/22 01:36:57;;;;;;;4.13;3.00;;;;;;;;;;2614891;54;20917;-74
2023/09/22 01:42:27;;;;;;;5.00;2.27;;;;;;;;;;2611786;54;20387;-75
2023/09/22 01:47:56;;;;;;;6.13;3.17;;;;;;;;;;2614428;54;20937;-75
2023/09/22 01:53:26;;;;;;;6.13;3.20;;;;;;;;;;2614650;54;20428;-76
2023/09/22 01:58:56;;;;;;;4.03;2.83;;;;;;;;;;2612811;54;20394;-77
2023/09/22 02:04:28;;;;;;;6.23;4.10;;;;;;;;;;2612871;54;20522;-76
2023/09/22 02:09:57;;;;;;;3.60;3.00;;;;;;;;;;2614370;54;21053;-76
2023/09/22 02:15:27;;;;;;;4.00;2.93;;;;;;;;;;2614529;46;20418;-75
2023/09/22 02:20:57;;;;;;;3.07;2.57;;;;;;;;;;2612343;54;20400;-76
2023/09/22 02:26:27;;;;;;;8.17;2.70;;;;;;;;;;2614437;54;20391;-76
2023/09/22 02:31:56;;;;;;;5.40;2.77;;;;;;;;;;2613366;54;20394;-76
2023/09/22 02:37:26;;;;;;;4.33;2.60;;;;;;;;;;2611652;54;20394;-76
2023/09/22 02:42:55;;;;;;;4.40;2.63;;;;;;;;;;2614571;54;21452;-76
2023/09/22 02:48:25;;;;;;;4.50;2.40;;;;;;;;;;2614629;54;20395;-75
2023/09/22 02:53:55;;;;;;;3.43;3.00;;;;;;;;;;2609251;54;20407;-74
2023/09/22 02:59:25;;;;;;;7.50;3.00;;;;;;;;;;2610366;54;20471;-76
2023/09/22 03:04:55;;;;;;;7.40;2.60;;;;;;;;;;2614741;31;20853;-76
2023/09/22 03:10:24;;;;;;;5.60;2.73;;;;;;;;;;2610204;54;20417;-76
2023/09/22 03:15:55;;;;;;;7.03;3.50;;;;;;;;;;2610042;54;20375;-77
2023/09/22 03:21:25;;;;;;;6.70;4.73;;;;;;;;;;2610784;54;20391;-77
2023/09/22 03:26:54;;;;;;;4.70;3.00;;;;;;;;;;2610379;54;20404;-77
2023/09/22 03:32:24;;;;;;;5.30;3.07;;;;;;;;;;2610071;54;20818;-76
2023/09/22 03:37:55;;;;;;;5.47;3.70;;;;;;;;;;2609040;54;20415;-76
2023/09/22 03:43:25;;;;;;;3.53;2.70;;;;;;;;;;2609418;54;20399;-76
2023/09/22 03:48:54;;;;;;;9.00;3.37;;;;;;;;;;2609381;54;20387;-76
2023/09/22 03:54:24;;;;;;;6.40;4.13;;;;;;;;;;2609254;54;20369;-76
2023/09/22 03:59:54;;;;;;;4.17;2.90;;;;;;;;;;2609728;54;20465;-76
2023/09/22 04:11:31;;;;;;;5.40;3.37;;;;;;;;;;2613242;54;20958;-76
2023/09/22 04:17:01;;;;;;;4.37;3.00;;;;;;;;;;2610256;39;20895;-76
2023/09/22 04:22:32;;;;;;;3.70;2.87;;;;;;;;;;2609536;39;20786;-76
2023/09/22 04:28:09;;;;;;;3.20;2.90;;;;;;;;;;2610054;54;20394;-77
2023/09/22 04:33:38;;;;;;;4.67;2.83;;;;;;;;;;2608014;54;20386;-76
2023/09/22 04:39:08;;;;;;;4.37;2.40;;;;;;;;;;2610152;54;20346;-77
2023/09/22 04:44:37;;;;;;;3.27;2.67;;;;;;;;;;2610194;54;20410;-76
2023/09/22 04:50:08;;;;;;;7.77;2.70;;;;;;;;;;2609899;54;20402;-77
2023/09/22 04:55:38;;;;;;;3.90;2.50;;;;;;;;;;2608827;46;20529;-75
2023/09/22 05:01:08;;;;;;;12.60;2.73;;;;;;;;;;2610189;54;20884;-76
2023/09/22 05:09:43;;;;;;;4.73;2.47;;;;;;;;;;2609810;54;20394;-76
2023/09/22 05:15:12;;;;;;;5.17;2.17;;;;;;;;;;2612288;54;20391;-74
2023/09/22 05:20:42;;;;;;;7.00;3.27;;;;;;;;;;2615330;54;20922;-75
2023/09/22 05:26:11;;;;;;;5.23;2.30;;;;;;;;;;2614359;54;20383;-75
2023/09/22 05:31:41;;;;;;;4.10;2.70;;;;;;;;;;2615530;54;20415;-74
2023/09/22 05:37:11;;;;;;;4.17;2.20;;;;;;;;;;2613305;54;20380;-75
2023/09/22 05:42:42;;;;;;;4.20;2.70;;;;;;;;;;2613801;54;20390;-75
2023/09/22 05:48:12;;;;;;;3.53;2.60;;;;;;;;;;2615346;54;20367;-74
2023/09/22 05:53:42;;;;;;;5.07;3.27;;;;;;;;;;2614637;54;20374;-73
2023/09/22 05:59:11;;;;;;;9.10;4.23;;;;;;;;;;2615168;54;20452;-75
2023/09/22 06:04:41;;;;;;;2.97;2.50;;;;;;;;;;2614752;54;20403;-76
2023/09/22 06:10:11;;;;;;;3.67;2.47;;;;;;;;;;2609283;54;20415;-76
2023/09/22 06:15:40;;;;;;;9.23;3.00;;;;;;;;;;2614585;54;20415;-77
2023/09/22 06:21:10;;;;;;;3.50;2.50;;;;;;;;;;2612466;54;20419;-77
2023/09/22 06:26:40;;;;;;;7.23;2.97;;;;;;;;;;2610790;54;20377;-77
2023/09/22 06:32:10;;;;;;;3.87;2.97;;;;;;;;;;2611084;54;20370;-76
2023/09/22 06:37:41;;;;;;;6.27;2.70;;;;;;;;;;2605216;54;20403;-76
2023/09/22 06:43:11;;;;;;;4.20;2.77;;;;;;;;;;2609217;54;20384;-76
2023/09/22 06:48:40;;;;;;;5.83;3.10;;;;;;;;;;2609950;54;20387;-76
2023/09/22 06:54:10;;;;;;;2.90;2.60;;;;;;;;;;2609971;54;20419;-76
2023/09/22 06:59:40;;;;;;;8.73;3.93;;;;;;;;;;2609800;54;20366;-76
2023/09/22 07:11:18;;;;;;;3.43;3.20;;;;;;;;;;2608478;54;20391;-76
2023/09/22 07:16:49;;;;;;;4.83;3.50;;;;;;;;;;2611043;54;20447;-76
2023/09/22 07:22:18;;;;;;;3.90;3.57;;;;;;;;;;2608602;54;20375;-77
2023/09/22 07:27:51;;;;;;;6.87;3.80;;;;;;;;;;2608329;54;20439;-77
2023/09/22 07:33:21;;;;;;;5.10;3.50;;;;;;;;;;2607753;54;21752;-77
2023/09/22 07:38:51;;;;;;;7.10;4.73;;;;;;;;;;2608748;54;20359;-77
2023/09/22 07:44:21;;;;;;;3.60;3.30;;;;;;;;;;2608070;54;20367;-76
2023/09/22 07:49:54;;;;;;;3.40;3.10;;;;;;;;;;2607607;54;20375;-75
2023/09/22 07:55:24;;;;;;;6.40;4.00;;;;;;;;;;2611587;54;20390;-77
2023/09/22 08:00:54;;;;;;;6.37;4.30;;;;;;;;;;2609412;39;20597;-76
2023/09/22 08:10:02;;;;;;;4.47;3.87;;;;;;;;;;2612330;54;21292;-77
2023/09/22 08:15:32;;;;;;;5.00;4.60;;;;;;;;;;2609591;54;20423;-78
2023/09/22 08:21:01;;;;;;;4.93;4.53;;;;;;;;;;2611191;54;20410;-78
2023/09/22 08:26:31;;;;;;;5.17;4.80;;;;;;;;;;2605836;54;21701;-78
2023/09/22 08:32:00;;;;;;;4.40;4.10;;;;;;;;;;2609129;54;20402;-78
2023/09/22 08:37:32;;;;;;;4.80;4.40;;;;;;;;;;2605944;54;20979;-78
2023/09/22 08:43:02;;;;;;;5.17;4.83;;;;;;;;;;2607081;54;20375;-78
2023/09/22 08:48:32;;;;;;;5.27;4.87;;;;;;;;;;2606608;54;20387;-77
2023/09/22 08:54:02;;;;;;;9.63;4.30;;;;;;;;;;2609299;54;20483;-77
2023/09/22 08:59:31;;;;;;;4.40;4.10;;;;;;;;;;2606690;54;20414;-77
2023/09/22 09:05:01;;;;;;;4.60;4.20;;;;;;;;;;2607592;54;20426;-75
2023/09/22 09:10:33;;;;;;;4.57;4.17;;;;;;;;;;2608818;54;20445;-76
2023/09/22 09:16:06;;;;;;;5.00;4.70;;;;;;;;;;2608117;54;20407;-77
2023/09/22 09:21:36;;;;;;;4.57;4.20;;;;;;;;;;2613709;54;20932;-77
2023/09/22 09:27:17;;;;;;;4.40;3.80;;;;;;;;;;2615404;54;20377;-77
2023/09/22 09:32:46;;;;;;;6.63;4.40;;;;;;;;;;2612377;54;20382;-78
2023/09/22 09:38:17;;;;;;;3.80;3.50;;;;;;;;;;2613573;54;20391;-77
2023/09/22 09:43:46;;;;;;;3.80;3.50;;;;;;;;;;2612363;54;20512;-78
2023/09/22 09:49:16;;;;;;;4.37;4.07;;;;;;;;;;2614374;39;20845;-77
2023/09/22 09:54:49;;;;;;;5.83;4.17;;;;;;;;;;2613614;54;20407;-78
2023/09/22 10:00:21;;;;;;;4.27;4.00;;;;;;;;;;2614221;54;21005;-78
2023/09/22 10:05:51;;;;;;;4.43;4.13;;;;;;;;;;2614267;54;20391;-78
2023/09/22 10:17:57;;;;;;;5.80;5.30;;;;;;;;;;2614270;54;20387;-77
2023/09/22 10:26:30;;;;;;;5.00;4.70;;;;;;;;;;2612939;54;20406;-75
2023/09/22 10:38:21;;;;;;;5.70;5.40;;;;;;;;;;2612305;54;20412;-75
2023/09/22 10:43:58;;;;;;;5.83;5.53;;;;;;;;;;2613684;54;20427;-75
2023/09/22 10:49:28;;;;;;;5.97;5.57;;;;;;;;;;2612781;54;20406;-75
2023/09/22 10:54:58;;;;;;;5.33;5.10;;;;;;;;;;2612747;54;20997;-76
2023/09/22 11:00:27;;;;;;;6.53;6.13;;;;;;;;;;2613543;39;20798;-75
2023/09/22 11:06:00;;;;;;;6.07;5.77;;;;;;;;;;2612411;54;20491;-75
2023/09/22 11:15:08;;;;;;;7.13;6.63;;;;;;;;;;2614716;54;20415;-77
2023/09/22 11:20:38;;;;;;;6.90;6.60;;;;;;;;;;2613666;54;20933;-75
2023/09/22 11:26:09;;;;;;;7.30;6.90;;;;;;;;;;2615297;54;20511;-77
2023/09/22 11:31:56;;;;;;;6.90;6.60;;;;;;;;;;2614157;54;20379;-78
2023/09/22 11:37:31;;;;;;;6.67;6.30;;;;;;;;;;2613627;54;20419;-80
2023/09/22 11:43:00;;;;;;;9.00;7.20;;;;;;;;;;2613247;39;20985;-78
2023/09/22 11:48:30;;;;;;;7.03;6.43;;;;;;;;;;2612429;54;20387;-78
2023/09/22 11:53:59;;;;;;;6.10;5.80;;;;;;;;;;2612964;54;20499;-79
2023/09/22 11:59:31;;;;;;;11.00;6.80;;;;;;;;;;2613247;54;20484;-79
2023/09/22 12:05:01;;;;;;;7.43;6.93;;;;;;;;;;2613849;54;20407;-79
2023/09/22 12:10:31;;;;;;;7.73;7.33;;;;;;;;;;2614651;54;20390;-79
2023/09/22 12:16:00;;;;;;;7.80;7.40;;;;;;;;;;2613706;54;20411;-78
2023/09/22 12:21:30;;;;;;;8.10;7.70;;;;;;;;;;2610435;54;20375;-77
2023/09/22 12:27:00;;;;;;;7.30;6.90;;;;;;;;;;2612465;54;20939;-78
2023/09/22 12:32:30;;;;;;;8.10;7.50;;;;;;;;;;2612626;54;20406;-75
2023/09/22 12:38:00;;;;;;;7.60;7.30;;;;;;;;;;2612094;54;20413;-75
2023/09/22 12:43:30;;;;;;;8.27;7.87;;;;;;;;;;2612408;54;20430;-76
2023/09/22 12:48:59;;;;;;;8.80;8.43;;;;;;;;;;2611808;54;20387;-77
2023/09/22 12:54:29;;;;;;;8.03;7.73;;;;;;;;;;2613138;39;20768;-75
2023/09/22 13:00:00;;;;;;;8.80;8.30;;;;;;;;;;2612151;54;20422;-77
2023/09/22 13:05:29;;;;;;;8.47;8.07;;;;;;;;;;2612410;54;20455;-74
2023/09/22 13:17:06;;;;;;;10.40;9.80;;;;;;;;;;2610764;54;20964;-76
2023/09/22 13:22:36;;;;;;;10.00;9.40;;;;;;;;;;2613062;54;20945;-75
2023/09/22 13:28:07;;;;;;;8.67;8.27;;;;;;;;;;2611048;54;20410;-76
2023/09/22 13:33:37;;;;;;;8.23;7.90;;;;;;;;;;2614619;54;20447;-76
2023/09/22 13:39:06;;;;;;;8.00;7.60;;;;;;;;;;2613216;39;21290;-75
2023/09/22 13:44:36;;;;;;;8.90;8.50;;;;;;;;;;2614857;54;20410;-78
2023/09/22 13:50:06;;;;;;;9.07;8.50;;;;;;;;;;2613908;54;20390;-76
2023/09/22 13:55:37;;;;;;;8.70;8.20;;;;;;;;;;2613917;54;20458;-74
2023/09/22 14:01:11;;;;;;;9.40;8.87;;;;;;;;;;2614935;54;20930;-75
2023/09/22 14:06:41;;;;;;;8.40;8.00;;;;;;;;;;2615373;54;20531;-75
2023/09/22 14:15:40;;;;;;;8.60;8.20;;;;;;;;;;2613485;54;21135;-76
2023/09/22 14:21:11;;;;;;;9.13;8.63;;;;;;;;;;2612697;54;20431;-75
2023/09/22 14:26:42;;;;;;;9.30;8.90;;;;;;;;;;2614414;39;20787;-75
2023/09/22 14:32:12;;;;;;;8.70;8.30;;;;;;;;;;2612965;54;20411;-75
2023/09/22 14:37:41;;;;;;;8.60;8.20;;;;;;;;;;2613037;54;20499;-75
2023/09/22 14:43:11;;;;;;;8.90;8.23;;;;;;;;;;2612708;54;20483;-75
2023/09/22 14:48:41;;;;;;;8.53;8.10;;;;;;;;;;2613040;46;20398;-75
2023/09/22 14:54:10;;;;;;;8.93;8.23;;;;;;;;;;2614463;54;20402;-78
2023/09/22 14:59:40;;;;;;;8.30;7.90;;;;;;;;;;2611564;54;20395;-78
2023/09/22 15:05:10;;;;;;;8.83;8.20;;;;;;;;;;2614213;54;20430;-78
2023/09/22 15:10:40;;;;;;;8.03;7.33;;;;;;;;;;2613343;54;20411;-78
2023/09/22 15:16:10;;;;;;;8.73;8.23;;;;;;;;;;2613739;54;20549;-78
2023/09/22 15:21:40;;;;;;;9.67;8.40;;;;;;;;;;2613538;54;20417;-78
2023/09/22 15:27:10;;;;;;;7.93;7.50;;;;;;;;;;2613460;54;20409;-78
2023/09/22 15:32:39;;;;;;;9.30;7.60;;;;;;;;;;2610416;39;20669;-77
2023/09/22 15:38:13;;;;;;;8.63;8.20;;;;;;;;;;2609073;54;20383;-77
2023/09/22 15:43:43;;;;;;;8.33;7.80;;;;;;;;;;2611209;54;20402;-79
2023/09/22 15:49:14;;;;;;;8.67;8.27;;;;;;;;;;2613812;54;20394;-78
2023/09/22 15:54:44;;;;;;;9.30;8.60;;;;;;;;;;2613738;54;20969;-78
2023/09/22 16:00:15;;;;;;;8.60;8.17;;;;;;;;;;2610890;54;20443;-78
2023/09/22 16:05:46;;;;;;;9.10;8.60;;;;;;;;;;2612411;54;20435;-75
2023/09/22 16:11:16;;;;;;;8.30;7.80;;;;;;;;;;2613859;54;20411;-75
2023/09/22 16:20:30;;;;;;;5.33;4.93;;;;;;;;;;2608456;39;20800;-74
2023/09/22 16:26:06;;;;;;;4.90;4.60;;;;;;;;;;2609557;54;20422;-74
2023/09/22 16:31:36;;;;;;;3.80;2.73;;;;;;;;;;2612535;54;20491;-76
2023/09/22 16:37:06;;;;;;;2.93;2.30;;;;;;;;;;2615233;54;20391;-76
2023/09/22 16:42:35;;;;;;;4.20;1.80;;;;;;;;;;2615645;54;20386;-77
2023/09/22 16:48:05;;;;;;;2.47;1.67;;;;;;;;;;2615600;54;20928;-76
2023/09/22 16:53:34;;;;;;;42.00;38.27;;;;;;;;;;2614972;54;20351;-76
2023/09/22 16:59:04;;;;;;;4.43;4.03;;;;;;;;;;2614894;54;20395;-76
2023/09/22 17:04:34;;;;;;;3.63;2.70;;;;;;;;;;2613949;54;20414;-76
2023/09/22 17:10:03;;;;;;;9.33;8.43;;;;;;;;;;2612041;54;21036;-76
2023/09/22 17:15:33;;;;;;;2.57;1.50;;;;;;;;;;2614828;54;21005;-76
2023/09/22 17:21:05;;;;;;;2.83;1.90;;;;;;;;;;2614770;54;20450;-77
2023/09/22 17:26:35;;;;;;;4.60;2.10;;;;;;;;;;2614947;54;20418;-76
2023/09/22 17:32:05;;;;;;;2.90;1.50;;;;;;;;;;2614652;54;20433;-76
2023/09/22 17:37:36;;;;;;;3.93;1.63;;;;;;;;;;2615071;54;20519;-77
2023/09/22 17:43:06;;;;;;;4.53;1.90;;;;;;;;;;2614007;54;20382;-77
2023/09/22 17:48:35;;;;;;;2.97;1.80;;;;;;;;;;2615976;39;20769;-75
2023/09/22 17:54:05;;;;;;;4.13;2.33;;;;;;;;;;2614760;39;20764;-78
2023/09/22 17:59:35;;;;;;;2.03;1.60;;;;;;;;;;2614989;54;20435;-77
2023/09/22 18:05:05;;;;;;;3.13;2.00;;;;;;;;;;2614940;54;20956;-78
2023/09/22 18:10:37;;;;;;;3.53;2.87;;;;;;;;;;2614329;46;20385;-78
2023/09/22 18:16:07;;;;;;;3.30;2.00;;;;;;;;;;2614104;54;20386;-75
2023/09/22 18:25:21;;;;;;;3.87;2.87;;;;;;;;;;2615388;54;20402;-77
2023/09/22 18:30:51;;;;;;;5.37;3.10;;;;;;;;;;2615398;54;20403;-78
2023/09/22 18:36:20;;;;;;;2.93;2.27;;;;;;;;;;2614921;54;20499;-76
2023/09/22 18:41:50;;;;;;;3.57;3.00;;;;;;;;;;2615410;47;20482;-75
2023/09/22 18:47:19;;;;;;;4.03;2.70;;;;;;;;;;2614975;54;20427;-76
2023/09/22 18:52:50;;;;;;;3.53;2.60;;;;;;;;;;2614838;54;20443;-76
2023/09/22 18:58:21;;;;;;;4.00;3.17;;;;;;;;;;2612803;54;20435;-75
2023/09/22 19:03:51;;;;;;;2.93;2.50;;;;;;;;;;2612365;54;20953;-74
2023/09/22 19:09:21;;;;;;;3.67;3.00;;;;;;;;;;2614758;54;20430;-76
2023/09/22 19:14:51;;;;;;;5.40;3.60;;;;;;;;;;2614772;54;20396;-76
2023/09/22 19:20:22;;;;;;;3.67;3.30;;;;;;;;;;2614625;54;20391;-75
2023/09/22 19:25:51;;;;;;;4.03;3.03;;;;;;;;;;2612494;54;21211;-76
2023/09/22 19:31:21;;;;;;;7.57;3.80;;;;;;;;;;2614579;54;20390;-76
2023/09/22 19:36:51;;;;;;;4.83;3.97;;;;;;;;;;2614081;54;20423;-76
2023/09/22 19:42:20;;;;;;;4.03;3.30;;;;;;;;;;2614965;54;20366;-76
2023/09/22 19:47:50;;;;;;;7.20;4.03;;;;;;;;;;2613169;54;20468;-76
2023/09/22 19:53:20;;;;;;;7.73;3.80;;;;;;;;;;2614928;54;20391;-77
2023/09/22 19:58:49;;;;;;;8.50;4.27;;;;;;;;;;2614984;54;20499;-77
2023/09/22 20:04:19;;;;;;;9.53;4.90;;;;;;;;;;2613741;54;20354;-77
2023/09/22 20:09:49;;;;;;;4.63;3.80;;;;;;;;;;2614424;54;20412;-77
2023/09/22 20:15:19;;;;;;;7.00;3.27;;;;;;;;;;2614297;54;20387;-78
2023/09/22 20:20:59;;;;;;;4.40;2.70;;;;;;;;;;2613985;54;20944;-77
2023/09/22 20:29:54;;;;;;;6.53;3.03;;;;;;;;;;2613758;54;20451;-79
2023/09/22 20:35:24;;;;;;;4.20;2.80;;;;;;;;;;2614382;54;20387;-77
2023/09/22 20:40:54;;;;;;;4.70;3.10;;;;;;;;;;2615850;39;20875;-79
2023/09/22 20:46:23;;;;;;;2.60;1.87;;;;;;;;;;2614502;54;20443;-78
2023/09/22 20:51:53;;;;;;;3.40;1.93;;;;;;;;;;2615117;54;20338;-79
2023/09/22 20:57:24;;;;;;;5.30;2.27;;;;;;;;;;2611472;54;20383;-80
2023/09/22 21:02:54;;;;;;;3.77;2.23;;;;;;;;;;2616441;54;20540;-80
2023/09/22 21:08:23;;;;;;;3.33;1.80;;;;;;;;;;2616414;54;20945;-80
2023/09/22 21:13:55;;;;;;;2.57;1.70;;;;;;;;;;2616690;54;20913;-78
2023/09/22 21:19:25;;;;;;;4.70;1.83;;;;;;;;;;2615986;54;20390;-80
2023/09/22 21:24:55;;;;;;;3.00;1.93;;;;;;;;;;2616880;54;20402;-79
2023/09/22 21:30:24;;;;;;;5.17;3.33;;;;;;;;;;2616364;39;20809;-78
2023/09/22 21:35:54;;;;;;;3.00;1.97;;;;;;;;;;2614970;54;20378;-77
2023/09/22 21:41:24;;;;;;;6.17;3.77;;;;;;;;;;2614548;39;20760;-77
2023/09/22 21:46:54;;;;;;;6.90;5.00;;;;;;;;;;2613303;54;20406;-77
2023/09/22 21:52:23;;;;;;;11.10;7.33;;;;;;;;;;2614393;54;20984;-78
2023/09/22 21:57:53;;;;;;;9.07;6.17;;;;;;;;;;2611843;54;20395;-77
2023/09/22 22:03:23;;;;;;;5.90;4.10;;;;;;;;;;2614690;54;20521;-79
2023/09/22 22:08:53;;;;;;;6.60;4.73;;;;;;;;;;2615250;39;20773;-77
2023/09/22 22:14:22;;;;;;;6.53;5.07;;;;;;;;;;2613630;39;20772;-78
2023/09/22 22:19:52;;;;;;;3.80;2.97;;;;;;;;;;2611878;54;20403;-79
2023/09/22 22:25:23;;;;;;;6.70;3.10;;;;;;;;;;2612591;54;20395;-79
2023/09/22 22:34:30;;;;;;;3.60;2.60;;;;;;;;;;2611959;31;20854;-79
2023/09/22 22:40:00;;;;;;;4.97;3.40;;;;;;;;;;2613695;54;20402;-79
2023/09/22 22:45:29;;;;;;;4.50;3.10;;;;;;;;;;2613242;54;20391;-80
2023/09/22 22:50:59;;;;;;;4.67;3.40;;;;;;;;;;2614690;54;20369;-80
2023/09/22 22:56:30;;;;;;;6.80;4.30;;;;;;;;;;2614122;39;20862;-79
2023/09/22 23:02:00;;;;;;;7.63;4.50;;;;;;;;;;2614388;54;20369;-80
2023/09/22 23:07:32;;;;;;;8.10;5.50;;;;;;;;;;2615510;39;20814;-81
2023/09/22 23:13:03;;;;;;;6.83;5.13;;;;;;;;;;2614663;54;20371;-79
2023/09/22 23:18:34;;;;;;;7.77;6.83;;;;;;;;;;2613909;54;20386;-79
2023/09/22 23:24:05;;;;;;;12.73;8.50;;;;;;;;;;2613940;54;20490;-79
2023/09/22 23:29:35;;;;;;;10.87;8.30;;;;;;;;;;2614393;54;21215;-78
2023/09/22 23:35:08;;;;;;;10.70;7.70;;;;;;;;;;2612803;54;20434;-80
2023/09/22 23:40:40;;;;;;;9.13;7.20;;;;;;;;;;2614290;54;20375;-78
2023/09/22 23:46:09;;;;;;;10.50;8.60;;;;;;;;;;2613499;54;20398;-77
2023/09/22 23:51:39;;;;;;;14.90;9.73;;;;;;;;;;2614051;39;20755;-78
2023/09/22 23:57:10;;;;;;;14.63;10.47;;;;;;;;;;2613923;54;20431;-75
